Time;durP1;ratioP1;P1;durP2;ratioP2;P2;SDS_P1;SDS_P2;PMS_P1;PMS_P2;Temp;Humidity;BMP_temperature;BMP_pressure;BME280_temperature;BME280_humidity;BME280_pressure;Samples;Min_cycle;Max_cycle;Signal;HPM_P1;HPM_P2
2023/09/04 00:01:21;;;;;;;;;;;15.40;99.90;;;;;;4995162;28;19922;-58
2023/09/04 00:03:47;;;;;;;;;;;15.40;99.90;;;;;;4993917;28;19922;-62
2023/09/04 00:06:16;;;;;;;;;;;15.40;99.90;;;;;;4993790;28;19918;-57
2023/09/04 00:08:42;;;;;;;;;;;15.30;99.90;;;;;;4977734;28;19921;-60
2023/09/04 00:11:07;;;;;;;;;;;15.30;99.90;;;;;;4995043;28;19917;-61
2023/09/04 00:13:33;;;;;;;;;;;15.30;99.90;;;;;;4995173;28;20384;-61
2023/09/04 00:15:58;;;;;;;;;;;15.20;99.90;;;;;;4994305;28;20379;-61
2023/09/04 00:18:24;;;;;;;;;;;15.30;99.90;;;;;;4994943;28;20012;-62
2023/09/04 00:20:52;;;;;;;;;;;15.30;99.90;;;;;;4995306;28;20383;-61
2023/09/04 00:23:17;;;;;;;;;;;15.30;99.90;;;;;;4995083;28;19918;-61
2023/09/04 00:25:43;;;;;;;;;;;15.30;99.90;;;;;;4994877;28;19944;-61
2023/09/04 00:28:09;;;;;;;;;;;15.30;99.90;;;;;;4993938;28;19917;-61
2023/09/04 00:30:34;;;;;;;;;;;15.30;99.90;;;;;;4993656;28;20328;-61
2023/09/04 00:33:00;;;;;;;;;;;15.30;99.90;;;;;;4994243;28;19922;-61
2023/09/04 00:35:25;;;;;;;;;;;15.30;99.90;;;;;;4994692;28;19921;-61
2023/09/04 00:37:51;;;;;;;;;;;15.30;99.90;;;;;;4995142;28;19918;-60
2023/09/04 00:40:17;;;;;;;;;;;15.20;99.90;;;;;;4994513;28;19921;-61
2023/09/04 00:42:42;;;;;;;;;;;15.20;99.90;;;;;;5001851;28;20383;-61
2023/09/04 00:45:11;;;;;;;;;;;15.20;99.90;;;;;;5012864;28;19925;-61
2023/09/04 00:47:40;;;;;;;;;;;15.10;99.90;;;;;;4994710;28;19918;-61
2023/09/04 00:50:11;;;;;;;;;;;15.00;99.90;;;;;;4994897;28;20011;-60
2023/09/04 00:52:36;;;;;;;;;;;14.90;99.90;;;;;;4994652;28;19921;-60
2023/09/04 00:55:05;;;;;;;;;;;14.90;99.90;;;;;;4994419;28;20280;-60
2023/09/04 00:57:30;;;;;;;;;;;14.90;99.90;;;;;;4994174;28;19918;-61
2023/09/04 00:59:57;;;;;;;;;;;14.80;99.90;;;;;;4976830;28;20426;-61
2023/09/04 01:02:22;;;;;;;;;;;14.70;99.90;;;;;;4993608;28;19967;-61
2023/09/04 01:04:48;;;;;;;;;;;14.70;99.90;;;;;;4994173;28;19949;-61
2023/09/04 01:07:14;;;;;;;;;;;14.60;99.90;;;;;;4976882;28;19933;-58
2023/09/04 01:09:40;;;;;;;;;;;14.60;99.90;;;;;;4993929;28;20261;-58
2023/09/04 01:12:16;;;;;;;;;;;14.50;99.90;;;;;;4993927;28;19921;-58
2023/09/04 01:14:44;;;;;;;;;;;14.60;99.90;;;;;;4993562;28;19952;-59
2023/09/04 01:17:10;;;;;;;;;;;14.60;99.90;;;;;;4994036;28;19917;-58
2023/09/04 01:19:37;;;;;;;;;;;14.50;99.90;;;;;;4993946;28;19924;-57
2023/09/04 01:22:05;;;;;;;;;;;14.50;99.90;;;;;;4993873;28;19972;-57
2023/09/04 01:24:30;;;;;;;;;;;14.50;99.90;;;;;;4975888;28;19922;-61
2023/09/04 01:27:03;;;;;;;;;;;14.40;99.90;;;;;;4986331;28;20265;-61
2023/09/04 01:29:29;;;;;;;;;;;14.30;99.90;;;;;;4995919;28;20323;-62
2023/09/04 01:32:01;;;;;;;;;;;14.30;99.90;;;;;;5010541;28;19917;-61
2023/09/04 01:34:30;;;;;;;;;;;14.30;99.90;;;;;;4975093;28;19944;-62
2023/09/04 01:36:57;;;;;;;;;;;14.20;99.90;;;;;;4969058;28;19917;-57
2023/09/04 01:39:24;;;;;;;;;;;14.30;99.90;;;;;;4996805;28;20360;-61
2023/09/04 01:41:49;;;;;;;;;;;14.40;99.90;;;;;;5000720;28;20410;-60
2023/09/04 01:44:15;;;;;;;;;;;14.40;99.90;;;;;;4995038;28;19957;-57
2023/09/04 01:46:41;;;;;;;;;;;14.30;99.90;;;;;;4996322;28;20264;-60
2023/09/04 01:49:07;;;;;;;;;;;14.30;99.90;;;;;;5013305;28;19918;-58
2023/09/04 01:51:32;;;;;;;;;;;14.30;99.90;;;;;;5011865;28;20011;-57
2023/09/04 01:53:58;;;;;;;;;;;14.30;99.90;;;;;;4979660;28;20009;-57
2023/09/04 01:56:24;;;;;;;;;;;14.30;99.90;;;;;;4978270;28;19922;-56
2023/09/04 01:58:49;;;;;;;;;;;14.20;99.90;;;;;;4986080;28;20257;-60
2023/09/04 02:01:15;;;;;;;;;;;14.30;99.90;;;;;;5000694;28;19926;-61
2023/09/04 02:03:43;;;;;;;;;;;14.30;99.90;;;;;;4983914;28;19929;-62
2023/09/04 02:06:08;;;;;;;;;;;14.40;99.90;;;;;;4995216;28;19918;-58
2023/09/04 02:08:34;;;;;;;;;;;14.40;99.90;;;;;;5001284;28;20303;-60
2023/09/04 02:10:59;;;;;;;;;;;14.40;99.90;;;;;;5006583;28;19980;-59
2023/09/04 02:13:25;;;;;;;;;;;14.50;99.90;;;;;;4996690;28;20288;-61
2023/09/04 02:15:50;;;;;;;;;;;14.50;99.90;;;;;;5006151;28;20012;-62
2023/09/04 02:18:16;;;;;;;;;;;14.40;99.90;;;;;;5004244;28;19921;-57
2023/09/04 02:20:42;;;;;;;;;;;14.40;99.90;;;;;;5001964;28;20283;-58
2023/09/04 02:23:07;;;;;;;;;;;14.50;99.90;;;;;;4978881;28;20380;-57
2023/09/04 02:25:33;;;;;;;;;;;14.40;99.90;;;;;;5006129;28;20064;-57
2023/09/04 02:27:58;;;;;;;;;;;14.40;99.90;;;;;;5005364;28;19972;-60
2023/09/04 02:30:24;;;;;;;;;;;14.40;99.90;;;;;;5005067;28;19991;-56
2023/09/04 02:32:49;;;;;;;;;;;14.40;99.90;;;;;;4985336;28;20016;-60
2023/09/04 02:35:15;;;;;;;;;;;14.40;99.90;;;;;;4996196;28;20467;-57
2023/09/04 02:37:42;;;;;;;;;;;14.40;99.90;;;;;;5000852;28;19917;-58
2023/09/04 02:40:08;;;;;;;;;;;14.30;99.90;;;;;;5000835;28;19918;-59
2023/09/04 02:42:33;;;;;;;;;;;14.20;99.90;;;;;;5004143;28;19921;-62
2023/09/04 02:44:59;;;;;;;;;;;14.20;99.90;;;;;;4999156;28;19917;-56
2023/09/04 02:47:24;;;;;;;;;;;14.20;99.90;;;;;;5002571;28;20367;-57
2023/09/04 02:49:50;;;;;;;;;;;14.20;99.90;;;;;;5018755;28;19924;-57
2023/09/04 02:52:16;;;;;;;;;;;14.20;99.90;;;;;;4984604;28;19928;-56
2023/09/04 02:54:43;;;;;;;;;;;14.20;99.90;;;;;;5013218;28;19968;-61
2023/09/04 02:57:08;;;;;;;;;;;14.10;99.90;;;;;;5019098;28;19927;-61
2023/09/04 02:59:35;;;;;;;;;;;14.10;99.90;;;;;;5018940;28;20743;-61
2023/09/04 03:02:01;;;;;;;;;;;14.10;99.90;;;;;;5017339;28;20295;-60
2023/09/04 03:04:27;;;;;;;;;;;14.00;99.90;;;;;;5004273;28;19975;-62
2023/09/04 03:06:53;;;;;;;;;;;14.00;99.90;;;;;;5016065;28;19948;-56
2023/09/04 03:09:18;;;;;;;;;;;14.00;99.90;;;;;;5001208;28;19963;-57
2023/09/04 03:11:45;;;;;;;;;;;13.90;99.90;;;;;;5001090;28;20311;-61
2023/09/04 03:14:10;;;;;;;;;;;13.90;99.90;;;;;;4993360;28;20296;-57
2023/09/04 03:16:36;;;;;;;;;;;13.80;99.90;;;;;;5018551;28;19924;-57
2023/09/04 03:19:01;;;;;;;;;;;13.80;99.90;;;;;;5000965;28;19963;-57
2023/09/04 03:21:28;;;;;;;;;;;13.90;99.90;;;;;;5018395;28;19921;-57
2023/09/04 03:23:53;;;;;;;;;;;13.90;99.90;;;;;;5018439;28;20300;-58
2023/09/04 03:26:19;;;;;;;;;;;13.90;99.90;;;;;;5018482;28;19921;-57
2023/09/04 03:28:45;;;;;;;;;;;13.80;99.90;;;;;;5017968;28;19972;-56
2023/09/04 03:31:14;;;;;;;;;;;13.80;99.90;;;;;;5018239;28;19925;-57
2023/09/04 03:33:40;;;;;;;;;;;13.80;99.90;;;;;;5006920;28;20458;-62
2023/09/04 03:36:06;;;;;;;;;;;13.80;99.90;;;;;;5016175;28;20033;-61
2023/09/04 03:38:31;;;;;;;;;;;13.70;99.90;;;;;;4966040;28;19918;-60
2023/09/04 03:40:57;;;;;;;;;;;13.80;99.90;;;;;;4998437;28;19924;-61
2023/09/04 03:43:22;;;;;;;;;;;13.80;99.90;;;;;;5017886;28;19960;-58
2023/09/04 03:45:48;;;;;;;;;;;13.60;99.90;;;;;;5000434;28;20369;-57
2023/09/04 03:48:15;;;;;;;;;;;13.60;99.90;;;;;;4999639;28;19968;-57
2023/09/04 03:50:40;;;;;;;;;;;13.60;99.90;;;;;;5015266;28;19917;-57
2023/09/04 03:53:06;;;;;;;;;;;13.60;99.90;;;;;;5015146;28;20494;-57
2023/09/04 03:55:31;;;;;;;;;;;13.70;99.90;;;;;;5015145;28;19940;-58
2023/09/04 03:57:58;;;;;;;;;;;13.70;99.90;;;;;;5009540;28;20016;-56
2023/09/04 04:00:24;;;;;;;;;;;13.60;99.90;;;;;;5005567;28;20167;-60
2023/09/04 04:02:51;;;;;;;;;;;13.50;99.90;;;;;;5001858;28;19971;-62
2023/09/04 04:05:17;;;;;;;;;;;13.40;99.90;;;;;;5011049;28;19917;-57
2023/09/04 04:07:43;;;;;;;;;;;13.40;99.90;;;;;;5005704;28;19917;-57
2023/09/04 04:10:08;;;;;;;;;;;13.40;99.90;;;;;;5002499;28;19987;-58
2023/09/04 04:12:34;;;;;;;;;;;13.40;99.90;;;;;;5000839;28;20446;-57
2023/09/04 04:15:03;;;;;;;;;;;13.50;99.90;;;;;;5009500;28;19925;-57
2023/09/04 04:17:29;;;;;;;;;;;13.40;99.90;;;;;;5010104;28;19924;-58
2023/09/04 04:19:55;;;;;;;;;;;13.40;99.90;;;;;;5014906;28;19917;-60
2023/09/04 04:22:21;;;;;;;;;;;13.30;99.90;;;;;;5009536;28;19921;-61
2023/09/04 04:24:47;;;;;;;;;;;13.30;99.90;;;;;;5012946;28;20008;-57
2023/09/04 04:27:15;;;;;;;;;;;13.40;99.90;;;;;;5007271;28;19917;-61
2023/09/04 04:29:41;;;;;;;;;;;13.30;99.90;;;;;;4992033;28;19987;-58
2023/09/04 04:32:07;;;;;;;;;;;13.30;99.90;;;;;;4995356;28;19925;-57
2023/09/04 04:34:32;;;;;;;;;;;13.30;99.90;;;;;;5008522;28;19921;-57
2023/09/04 04:36:59;;;;;;;;;;;13.30;99.90;;;;;;4983785;28;19918;-57
2023/09/04 04:39:25;;;;;;;;;;;13.30;99.90;;;;;;4997967;28;19918;-57
2023/09/04 04:41:51;;;;;;;;;;;13.30;99.90;;;;;;5001716;28;20382;-59
2023/09/04 04:44:17;;;;;;;;;;;13.30;99.90;;;;;;4991812;28;20276;-57
2023/09/04 04:46:42;;;;;;;;;;;13.30;99.90;;;;;;4992202;28;19917;-59
2023/09/04 04:49:08;;;;;;;;;;;13.20;99.90;;;;;;5014684;28;20024;-60
2023/09/04 04:51:33;;;;;;;;;;;13.20;99.90;;;;;;5013278;28;19922;-58
2023/09/04 04:53:59;;;;;;;;;;;13.20;99.90;;;;;;5006312;28;19984;-57
2023/09/04 04:56:24;;;;;;;;;;;13.10;99.90;;;;;;5005392;28;19959;-59
2023/09/04 04:58:50;;;;;;;;;;;13.10;99.90;;;;;;5013985;28;19917;-59
2023/09/04 05:01:15;;;;;;;;;;;13.10;99.90;;;;;;5003449;28;19917;-60
2023/09/04 05:03:41;;;;;;;;;;;13.10;99.90;;;;;;5006013;28;19928;-57
2023/09/04 05:06:07;;;;;;;;;;;13.10;99.90;;;;;;5000006;28;19924;-60
2023/09/04 05:08:33;;;;;;;;;;;13.10;99.90;;;;;;5013947;28;20386;-57
2023/09/04 05:11:03;;;;;;;;;;;13.10;99.90;;;;;;5013926;28;19917;-58
2023/09/04 05:13:29;;;;;;;;;;;13.10;99.90;;;;;;5012359;28;19948;-57
2023/09/04 05:15:54;;;;;;;;;;;13.10;99.90;;;;;;5013470;28;19925;-58
2023/09/04 05:18:20;;;;;;;;;;;13.10;99.90;;;;;;5013544;28;19971;-57
2023/09/04 05:20:45;;;;;;;;;;;13.10;99.90;;;;;;5013500;28;19970;-57
2023/09/04 05:23:11;;;;;;;;;;;13.20;99.90;;;;;;5013454;28;19940;-57
2023/09/04 05:25:36;;;;;;;;;;;13.30;99.90;;;;;;5008967;28;20016;-57
2023/09/04 05:28:02;;;;;;;;;;;13.40;99.90;;;;;;5013066;28;19924;-57
2023/09/04 05:30:28;;;;;;;;;;;13.60;99.90;;;;;;5013313;28;19917;-58
2023/09/04 05:32:53;;;;;;;;;;;13.70;99.90;;;;;;5006505;28;19929;-57
2023/09/04 05:35:19;;;;;;;;;;;13.80;99.90;;;;;;4995890;28;19929;-57
2023/09/04 05:37:44;;;;;;;;;;;13.90;99.90;;;;;;5001451;28;20249;-57
2023/09/04 05:40:10;;;;;;;;;;;14.00;99.90;;;;;;4993314;28;19940;-58
2023/09/04 05:42:36;;;;;;;;;;;14.20;99.90;;;;;;4993470;28;19971;-59
2023/09/04 05:45:02;;;;;;;;;;;14.30;99.90;;;;;;4976017;28;19917;-59
2023/09/04 05:47:28;;;;;;;;;;;14.40;99.90;;;;;;4993286;28;19918;-60
2023/09/04 05:49:53;;;;;;;;;;;14.50;99.90;;;;;;4992492;28;20364;-60
2023/09/04 05:52:19;;;;;;;;;;;14.60;99.90;;;;;;4975927;28;20319;-60
2023/09/04 05:54:45;;;;;;;;;;;14.70;99.90;;;;;;4976085;28;19925;-58
2023/09/04 05:57:10;;;;;;;;;;;14.80;99.90;;;;;;4993225;28;19918;-57
2023/09/04 05:59:36;;;;;;;;;;;14.90;99.90;;;;;;4993578;28;20434;-57
2023/09/04 06:02:02;;;;;;;;;;;15.00;99.90;;;;;;4993417;28;20292;-57
2023/09/04 06:04:27;;;;;;;;;;;15.20;99.90;;;;;;4993126;28;20280;-57
2023/09/04 06:06:53;;;;;;;;;;;15.30;99.90;;;;;;4993390;28;19918;-58
2023/09/04 06:09:19;;;;;;;;;;;15.40;99.90;;;;;;4992055;28;20383;-58
2023/09/04 06:11:44;;;;;;;;;;;15.50;99.90;;;;;;4993430;28;19968;-57
2023/09/04 06:14:10;;;;;;;;;;;15.60;99.90;;;;;;4991239;28;20818;-58
2023/09/04 06:16:39;;;;;;;;;;;15.70;99.90;;;;;;4992926;28;19925;-60
2023/09/04 06:19:05;;;;;;;;;;;15.90;99.90;;;;;;5008673;28;19918;-59
2023/09/04 06:21:30;;;;;;;;;;;15.90;99.90;;;;;;5012989;28;19924;-59
2023/09/04 06:23:56;;;;;;;;;;;16.00;99.90;;;;;;5012953;28;20311;-59
2023/09/04 06:26:21;;;;;;;;;;;16.10;99.90;;;;;;5012830;28;19972;-59
2023/09/04 06:28:47;;;;;;;;;;;16.20;99.90;;;;;;5002282;28;19918;-60
2023/09/04 06:31:12;;;;;;;;;;;16.30;99.90;;;;;;5008401;28;19917;-58
2023/09/04 06:33:38;;;;;;;;;;;16.40;99.90;;;;;;5001221;28;19921;-58
2023/09/04 06:36:04;;;;;;;;;;;16.40;99.90;;;;;;5012542;28;19983;-58
2023/09/04 06:38:30;;;;;;;;;;;16.50;99.90;;;;;;4994539;28;19957;-57
2023/09/04 06:40:58;;;;;;;;;;;16.50;99.90;;;;;;4992642;28;19925;-59
2023/09/04 06:43:27;;;;;;;;;;;16.50;99.90;;;;;;4994515;28;19922;-58
2023/09/04 06:45:53;;;;;;;;;;;16.60;99.90;;;;;;4993278;28;20008;-58
2023/09/04 06:48:19;;;;;;;;;;;16.70;99.90;;;;;;4975610;28;20008;-58
2023/09/04 06:50:44;;;;;;;;;;;16.80;99.90;;;;;;5012268;28;19928;-58
2023/09/04 06:53:10;;;;;;;;;;;16.90;99.90;;;;;;4976347;28;19921;-59
2023/09/04 06:55:36;;;;;;;;;;;17.00;99.90;;;;;;4992835;28;19925;-58
2023/09/04 06:58:01;;;;;;;;;;;17.10;99.90;;;;;;4992722;28;19917;-57
2023/09/04 07:00:27;;;;;;;;;;;17.20;99.90;;;;;;4996452;28;19964;-57
2023/09/04 07:02:52;;;;;;;;;;;17.30;99.90;;;;;;4976262;28;19921;-59
2023/09/04 07:05:18;;;;;;;;;;;17.40;99.90;;;;;;4994698;28;20273;-59
2023/09/04 07:07:44;;;;;;;;;;;17.60;99.90;;;;;;5001009;28;19925;-60
2023/09/04 07:10:11;;;;;;;;;;;17.70;99.90;;;;;;4965527;28;19918;-58
2023/09/04 07:12:37;;;;;;;;;;;17.80;99.90;;;;;;4996847;28;20446;-58
2023/09/04 07:15:03;;;;;;;;;;;18.00;99.90;;;;;;4975009;28;19918;-57
2023/09/04 07:17:29;;;;;;;;;;;18.10;99.90;;;;;;5002530;28;19979;-58
2023/09/04 07:19:54;;;;;;;;;;;18.20;99.90;;;;;;5011937;28;20421;-58
2023/09/04 07:22:20;;;;;;;;;;;18.30;99.90;;;;;;5012277;28;19943;-58
2023/09/04 07:24:46;;;;;;;;;;;18.50;99.90;;;;;;4994294;28;19997;-58
2023/09/04 07:27:11;;;;;;;;;;;18.60;99.90;;;;;;5005125;28;19918;-58
2023/09/04 07:29:37;;;;;;;;;;;18.70;99.90;;;;;;4995992;28;19918;-59
2023/09/04 07:32:02;;;;;;;;;;;18.80;99.90;;;;;;4998301;28;19925;-58
2023/09/04 07:34:28;;;;;;;;;;;19.00;99.90;;;;;;4995788;28;19922;-58
2023/09/04 07:36:54;;;;;;;;;;;19.10;99.90;;;;;;4978173;28;19928;-57
2023/09/04 07:39:20;;;;;;;;;;;19.20;99.90;;;;;;4995987;28;19940;-58
2023/09/04 07:41:45;;;;;;;;;;;19.30;99.90;;;;;;4995622;28;20295;-57
2023/09/04 07:44:11;;;;;;;;;;;19.30;99.90;;;;;;4995789;28;19968;-58
2023/09/04 07:46:37;;;;;;;;;;;19.50;99.90;;;;;;4995838;28;20436;-58
2023/09/04 07:49:02;;;;;;;;;;;19.60;99.90;;;;;;4996037;28;19922;-58
2023/09/04 07:51:28;;;;;;;;;;;19.60;99.90;;;;;;4994686;28;19922;-58
2023/09/04 07:53:53;;;;;;;;;;;19.80;99.90;;;;;;4995183;28;20438;-57
2023/09/04 07:56:20;;;;;;;;;;;19.90;99.90;;;;;;4995665;28;19918;-57
2023/09/04 07:58:46;;;;;;;;;;;20.00;99.90;;;;;;4995525;28;19925;-57
2023/09/04 08:01:13;;;;;;;;;;;20.10;99.90;;;;;;4995800;28;20014;-57
2023/09/04 08:03:40;;;;;;;;;;;20.20;99.90;;;;;;4994716;28;19921;-57
2023/09/04 08:06:05;;;;;;;;;;;20.30;99.90;;;;;;4977709;28;19921;-58
2023/09/04 08:08:31;;;;;;;;;;;20.30;99.90;;;;;;4995266;28;19982;-58
2023/09/04 08:10:56;;;;;;;;;;;20.40;99.90;;;;;;4995165;28;19925;-58
2023/09/04 08:13:22;;;;;;;;;;;20.40;99.90;;;;;;4994847;28;19925;-57
2023/09/04 08:15:48;;;;;;;;;;;20.60;99.90;;;;;;4994867;28;19918;-58
2023/09/04 08:18:16;;;;;;;;;;;20.70;99.90;;;;;;4999596;28;19921;-59
2023/09/04 08:20:42;;;;;;;;;;;20.70;99.90;;;;;;4998157;28;19917;-60
2023/09/04 08:23:09;;;;;;;;;;;20.90;99.90;;;;;;5012166;28;19992;-60
2023/09/04 08:25:35;;;;;;;;;;;21.00;99.90;;;;;;4987134;28;19924;-60
2023/09/04 08:28:01;;;;;;;;;;;21.10;99.90;;;;;;5014604;28;19917;-60
2023/09/04 08:30:26;;;;;;;;;;;21.20;99.90;;;;;;5010636;28;19927;-61
2023/09/04 08:32:52;;;;;;;;;;;21.30;99.90;;;;;;5014668;28;20003;-60
2023/09/04 08:35:18;;;;;;;;;;;21.30;99.90;;;;;;4995033;28;19924;-60
2023/09/04 08:37:44;;;;;;;;;;;21.30;99.90;;;;;;5002809;28;19940;-59
2023/09/04 08:40:09;;;;;;;;;;;21.40;99.90;;;;;;4993327;28;19921;-60
2023/09/04 08:42:37;;;;;;;;;;;21.60;99.90;;;;;;4993764;28;20717;-59
2023/09/04 08:45:03;;;;;;;;;;;21.60;99.90;;;;;;4993574;28;19936;-60
2023/09/04 08:47:28;;;;;;;;;;;21.80;99.90;;;;;;4995198;28;20247;-59
2023/09/04 08:49:55;;;;;;;;;;;21.80;99.90;;;;;;4994786;28;19968;-59
2023/09/04 08:52:20;;;;;;;;;;;21.90;99.90;;;;;;4994665;28;19958;-60
2023/09/04 08:54:47;;;;;;;;;;;22.10;99.90;;;;;;4994669;28;19918;-60
2023/09/04 08:57:13;;;;;;;;;;;22.10;99.90;;;;;;4976926;28;20004;-60
2023/09/04 08:59:38;;;;;;;;;;;22.30;99.90;;;;;;4994014;28;19921;-59
2023/09/04 09:02:04;;;;;;;;;;;22.30;99.90;;;;;;4989271;28;20265;-60
2023/09/04 09:04:30;;;;;;;;;;;22.50;99.90;;;;;;4994398;28;20280;-60
2023/09/04 09:06:57;;;;;;;;;;;22.60;99.90;;;;;;4976352;28;19924;-59
2023/09/04 09:09:22;;;;;;;;;;;22.70;99.90;;;;;;4960949;28;20348;-60
2023/09/04 09:11:54;;;;;;;;;;;22.90;99.90;;;;;;5005820;28;20426;-60
2023/09/04 09:14:26;;;;;;;;;;;22.80;99.90;;;;;;5013831;28;19927;-59
2023/09/04 09:17:10;;;;;;;;;;;22.80;99.90;;;;;;5014097;28;20377;-59
2023/09/04 09:19:37;;;;;;;;;;;23.00;99.90;;;;;;5012773;28;19921;-60
2023/09/04 09:22:09;;;;;;;;;;;23.10;99.90;;;;;;4996273;28;19924;-59
2023/09/04 09:24:47;;;;;;;;;;;23.30;99.90;;;;;;5013761;28;20487;-60
2023/09/04 09:27:13;;;;;;;;;;;23.30;99.90;;;;;;5013886;28;19917;-61
2023/09/04 09:29:38;;;;;;;;;;;23.50;99.90;;;;;;5013308;28;19917;-61
2023/09/04 09:32:04;;;;;;;;;;;23.60;99.90;;;;;;4995673;28;19921;-61
2023/09/04 09:34:33;;;;;;;;;;;23.50;99.90;;;;;;5013338;28;19930;-61
2023/09/04 09:36:59;;;;;;;;;;;23.60;99.90;;;;;;5007929;28;19928;-60
2023/09/04 09:39:25;;;;;;;;;;;23.40;99.90;;;;;;4993835;28;20070;-59
2023/09/04 09:41:51;;;;;;;;;;;23.50;99.90;;;;;;4993631;28;19964;-59
2023/09/04 09:44:17;;;;;;;;;;;23.50;99.90;;;;;;4993546;28;20008;-60
2023/09/04 09:46:42;;;;;;;;;;;23.50;99.90;;;;;;4993500;28;19918;-60
2023/09/04 09:49:08;;;;;;;;;;;23.60;99.90;;;;;;4992286;28;19918;-60
2023/09/04 09:51:37;;;;;;;;;;;23.50;99.90;;;;;;5002878;28;20350;-61
2023/09/04 09:54:05;;;;;;;;;;;23.50;99.90;;;;;;5013102;28;19921;-61
2023/09/04 09:56:30;;;;;;;;;;;23.50;99.90;;;;;;5013140;28;19925;-60
2023/09/04 09:58:56;;;;;;;;;;;23.60;99.90;;;;;;5012877;28;20314;-60
2023/09/04 10:01:22;;;;;;;;;;;23.50;99.90;;;;;;5012117;28;19925;-60
2023/09/04 10:03:49;;;;;;;;;;;23.50;99.90;;;;;;4987764;28;19991;-60
2023/09/04 10:06:16;;;;;;;;;;;23.70;99.90;;;;;;5013178;28;20276;-59
2023/09/04 10:08:47;;;;;;;;;;;23.80;99.90;;;;;;5013203;28;19921;-60
2023/09/04 10:11:13;;;;;;;;;;;23.90;99.90;;;;;;5012757;28;19972;-59
2023/09/04 10:14:02;;;;;;;;;;;23.90;99.90;;;;;;5012426;28;19967;-60
2023/09/04 10:16:37;;;;;;;;;;;24.10;99.90;;;;;;5012466;28;20394;-59
2023/09/04 10:19:04;;;;;;;;;;;24.40;99.90;;;;;;5012825;28;20406;-59
2023/09/04 10:21:32;;;;;;;;;;;24.50;99.90;;;;;;4994917;28;19925;-60
2023/09/04 10:24:05;;;;;;;;;;;24.40;99.90;;;;;;5012549;28;19924;-60
2023/09/04 10:26:48;;;;;;;;;;;24.60;99.90;;;;;;4995055;28;19965;-60
2023/09/04 10:29:17;;;;;;;;;;;24.70;99.90;;;;;;5012802;28;19921;-59
2023/09/04 10:31:43;;;;;;;;;;;24.90;99.90;;;;;;5010485;28;20328;-61
2023/09/04 10:34:09;;;;;;;;;;;24.70;99.90;;;;;;5012284;28;20429;-60
2023/09/04 10:36:36;;;;;;;;;;;24.80;99.90;;;;;;5008094;28;19922;-60
2023/09/04 10:39:02;;;;;;;;;;;24.80;99.90;;;;;;4992741;28;20404;-61
2023/09/04 10:41:33;;;;;;;;;;;24.90;99.90;;;;;;4992550;28;19918;-60
2023/09/04 10:43:59;;;;;;;;;;;24.90;99.90;;;;;;4992815;28;19917;-60
2023/09/04 10:46:24;;;;;;;;;;;25.00;99.90;;;;;;4993009;28;19917;-60
2023/09/04 10:48:51;;;;;;;;;;;24.80;99.90;;;;;;4992477;28;19924;-61
2023/09/04 10:51:29;;;;;;;;;;;25.00;99.90;;;;;;4992695;28;20011;-58
2023/09/04 10:53:55;;;;;;;;;;;25.10;99.90;;;;;;4992402;28;19925;-60
2023/09/04 10:56:21;;;;;;;;;;;25.20;99.90;;;;;;4992410;28;20406;-59
2023/09/04 10:59:02;;;;;;;;;;;25.10;99.90;;;;;;4992632;28;19917;-60
2023/09/04 11:01:36;;;;;;;;;;;25.20;99.90;;;;;;4996514;28;19972;-61
2023/09/04 11:04:04;;;;;;;;;;;25.00;99.90;;;;;;4996079;28;20009;-60
2023/09/04 11:06:32;;;;;;;;;;;25.20;99.90;;;;;;4996439;28;19924;-60
2023/09/04 11:09:00;;;;;;;;;;;25.20;99.90;;;;;;4996038;28;20427;-59
2023/09/04 11:11:26;;;;;;;;;;;25.30;99.90;;;;;;4996561;28;20412;-60
2023/09/04 11:13:55;;;;;;;;;;;25.30;99.90;;;;;;4996350;28;19921;-62
2023/09/04 11:16:21;;;;;;;;;;;25.30;99.90;;;;;;4996135;28;19921;-60
2023/09/04 11:18:46;;;;;;;;;;;25.20;99.90;;;;;;4996088;28;19925;-61
2023/09/04 11:21:12;;;;;;;;;;;25.30;99.90;;;;;;4996394;28;19921;-60
2023/09/04 11:23:40;;;;;;;;;;;25.30;99.90;;;;;;4996316;28;19918;-60
2023/09/04 11:26:06;;;;;;;;;;;25.40;99.90;;;;;;4996318;28;19918;-61
2023/09/04 11:28:31;;;;;;;;;;;25.40;99.90;;;;;;4996064;28;20470;-61
2023/09/04 11:30:58;;;;;;;;;;;25.50;99.90;;;;;;4995911;28;19917;-61
2023/09/04 11:33:24;;;;;;;;;;;25.50;99.90;;;;;;4995632;28;19929;-60
2023/09/04 11:36:03;;;;;;;;;;;25.60;99.90;;;;;;4996337;28;19922;-60
2023/09/04 11:38:29;;;;;;;;;;;25.70;99.90;;;;;;4995814;28;19917;-60
2023/09/04 11:40:55;;;;;;;;;;;25.70;99.90;;;;;;4995934;28;20001;-61
2023/09/04 11:43:25;;;;;;;;;;;25.70;99.90;;;;;;4995724;28;20008;-60
2023/09/04 11:45:55;;;;;;;;;;;25.80;99.90;;;;;;4995769;28;19925;-61
2023/09/04 11:48:22;;;;;;;;;;;25.90;99.90;;;;;;4995803;28;19917;-62
2023/09/04 11:50:48;;;;;;;;;;;25.90;99.90;;;;;;4995645;28;20368;-61
2023/09/04 11:53:14;;;;;;;;;;;25.90;99.90;;;;;;4995648;28;19941;-61
2023/09/04 11:55:39;;;;;;;;;;;26.00;99.90;;;;;;4995537;28;19918;-61
2023/09/04 11:58:05;;;;;;;;;;;25.90;99.90;;;;;;4995518;28;19922;-60
2023/09/04 12:00:30;;;;;;;;;;;25.90;99.90;;;;;;4995625;28;19961;-62
2023/09/04 12:02:56;;;;;;;;;;;25.80;99.90;;;;;;4995305;28;19929;-61
2023/09/04 12:05:21;;;;;;;;;;;25.50;99.90;;;;;;4995261;28;19924;-61
2023/09/04 12:07:47;;;;;;;;;;;25.60;99.90;;;;;;4995690;28;19922;-61
2023/09/04 12:10:13;;;;;;;;;;;25.70;99.90;;;;;;4982752;28;19922;-62
2023/09/04 12:12:38;;;;;;;;;;;25.70;99.90;;;;;;4993175;28;19917;-60
2023/09/04 12:15:04;;;;;;;;;;;25.60;99.90;;;;;;4995112;28;19922;-60
2023/09/04 12:17:30;;;;;;;;;;;25.60;99.90;;;;;;4993914;28;19922;-60
2023/09/04 12:19:56;;;;;;;;;;;25.80;99.90;;;;;;4995379;28;20466;-61
2023/09/04 12:22:22;;;;;;;;;;;25.80;99.90;;;;;;4995183;28;19917;-61
2023/09/04 12:25:06;;;;;;;;;;;25.80;99.90;;;;;;4995200;28;19924;-61
2023/09/04 12:27:33;;;;;;;;;;;25.90;99.90;;;;;;4994536;28;20287;-62
2023/09/04 12:29:58;;;;;;;;;;;25.90;99.90;;;;;;4995214;28;19968;-60
2023/09/04 12:32:24;;;;;;;;;;;25.90;99.90;;;;;;4994750;28;20331;-59
2023/09/04 12:34:50;;;;;;;;;;;26.00;99.90;;;;;;4977173;28;20364;-61
2023/09/04 12:37:19;;;;;;;;;;;26.00;99.90;;;;;;4994694;28;19918;-61
2023/09/04 12:39:44;;;;;;;;;;;25.90;99.90;;;;;;4994706;28;19925;-61
2023/09/04 12:42:10;;;;;;;;;;;26.00;99.90;;;;;;4994365;28;19972;-61
2023/09/04 12:44:35;;;;;;;;;;;25.80;99.90;;;;;;4994930;28;19972;-62
2023/09/04 12:47:01;;;;;;;;;;;25.90;99.90;;;;;;4977098;28;20012;-60
2023/09/04 12:49:28;;;;;;;;;;;25.90;99.90;;;;;;4994811;28;19922;-61
2023/09/04 12:51:53;;;;;;;;;;;26.10;99.90;;;;;;4994317;28;19918;-61
2023/09/04 12:54:19;;;;;;;;;;;26.10;99.90;;;;;;4994304;28;19921;-59
2023/09/04 12:56:45;;;;;;;;;;;26.10;99.90;;;;;;4994529;28;19917;-58
2023/09/04 12:59:10;;;;;;;;;;;26.10;99.90;;;;;;4994562;28;19918;-59
2023/09/04 13:01:36;;;;;;;;;;;26.10;99.90;;;;;;4994249;28;19971;-58
2023/09/04 13:04:03;;;;;;;;;;;26.00;99.90;;;;;;4976170;28;19925;-58
2023/09/04 13:06:30;;;;;;;;;;;26.10;99.90;;;;;;4993980;28;20393;-59
2023/09/04 13:08:55;;;;;;;;;;;26.00;99.90;;;;;;4994115;28;19928;-59
2023/09/04 13:11:22;;;;;;;;;;;26.10;99.90;;;;;;4992544;28;19917;-59
2023/09/04 13:13:47;;;;;;;;;;;26.00;99.90;;;;;;4993947;28;19926;-59
2023/09/04 13:16:13;;;;;;;;;;;26.10;99.90;;;;;;4993950;28;19924;-59
2023/09/04 13:18:38;;;;;;;;;;;26.10;99.90;;;;;;4994067;28;19918;-59
2023/09/04 13:21:04;;;;;;;;;;;26.20;99.90;;;;;;4992662;28;20249;-58
2023/09/04 13:23:30;;;;;;;;;;;26.10;99.90;;;;;;4993607;28;19917;-58
2023/09/04 13:25:55;;;;;;;;;;;26.10;99.90;;;;;;4993844;28;19917;-59
2023/09/04 13:28:21;;;;;;;;;;;26.00;99.90;;;;;;4993825;28;20438;-58
2023/09/04 13:30:46;;;;;;;;;;;25.90;99.90;;;;;;4993601;28;19918;-59
2023/09/04 13:33:12;;;;;;;;;;;26.00;99.90;;;;;;4993569;28;20383;-58
2023/09/04 13:35:37;;;;;;;;;;;26.00;99.90;;;;;;4993709;28;19917;-58
2023/09/04 13:38:03;;;;;;;;;;;26.00;99.90;;;;;;4976079;28;19940;-59
2023/09/04 13:40:29;;;;;;;;;;;26.00;99.90;;;;;;4993241;28;19924;-58
2023/09/04 13:42:54;;;;;;;;;;;25.90;99.90;;;;;;4987046;28;20282;-58
2023/09/04 13:45:20;;;;;;;;;;;25.80;99.90;;;;;;4999285;28;20425;-59
2023/09/04 13:47:45;;;;;;;;;;;25.90;99.90;;;;;;5007411;28;19917;-58
2023/09/04 13:50:11;;;;;;;;;;;25.90;99.90;;;;;;5004635;28;19917;-59
2023/09/04 13:52:37;;;;;;;;;;;25.90;99.90;;;;;;4997390;28;20043;-59
2023/09/04 13:55:02;;;;;;;;;;;26.00;99.90;;;;;;5013148;28;20283;-58
2023/09/04 13:57:28;;;;;;;;;;;26.00;99.90;;;;;;5012937;28;19940;-57
2023/09/04 13:59:53;;;;;;;;;;;26.00;99.90;;;;;;5013188;28;19921;-58
2023/09/04 14:02:19;;;;;;;;;;;26.00;99.90;;;;;;4983131;28;20383;-58
2023/09/04 14:04:45;;;;;;;;;;;25.80;99.90;;;;;;5001906;28;20021;-58
2023/09/04 14:07:10;;;;;;;;;;;25.70;99.90;;;;;;5013075;28;19921;-59
2023/09/04 14:09:36;;;;;;;;;;;25.80;99.90;;;;;;5012620;28;19995;-57
2023/09/04 14:12:01;;;;;;;;;;;25.70;99.90;;;;;;5007919;28;20342;-58